Terminal Aerodrome Forecast
Issued by NWS Nashville, TN

Home | Current Version | Previous Version | Text Only | Print | Product List | Glossary On
Versions: 1 2 3 4 5 6 7 8 9 10 11 12 13 14 15 16 17 18 19 20 21 22
620
FTUS44 KOHX 291605 AAA
TAFBNA
TAF AMD
KBNA 291605Z 2916/3012 21007KT P6SM VCTS SCT025CB OVC045
     FM292300 21003KT P6SM BKN100
     FM300900 19002KT P6SM SCT015 OVC021=

USA.gov is the U.S. government's official web portal to all federal, state and local government web resources and services.